createdAt,value
2019-01-22T00:02:11.972Z,22.20
2019-01-22T00:04:41.305Z,22.20
2019-01-22T00:07:11.895Z,23.20
2019-01-22T00:09:41.244Z,22.10
2019-01-22T00:12:10.607Z,22.60
2019-01-22T00:14:39.929Z,23.07
2019-01-22T00:17:09.246Z,23.27
2019-01-22T00:19:38.600Z,23.30
2019-01-22T00:22:07.834Z,22.30
2019-01-22T00:24:37.024Z,23.53
2019-01-22T00:27:06.238Z,22.93
2019-01-22T00:29:35.461Z,22.43
2019-01-22T00:32:04.700Z,22.83
2019-01-22T00:34:33.955Z,22.17
2019-01-22T00:37:03.227Z,23.37
2019-01-22T00:39:32.429Z,21.17
2019-01-22T00:42:01.639Z,21.17
2019-01-22T00:44:30.853Z,24.37
2019-01-22T00:47:00.075Z,23.47
2019-01-22T00:49:29.319Z,21.70
2019-01-22T00:51:58.524Z,22.93
2019-01-22T00:54:27.721Z,22.77
2019-01-22T00:56:56.917Z,23.23
2019-01-22T00:59:26.144Z,21.17
2019-01-22T01:01:55.378Z,23.73
2019-01-22T01:04:24.581Z,21.87
2019-01-22T01:06:53.799Z,23.40
2019-01-22T01:09:23.018Z,22.63
2019-01-22T01:11:52.234Z,22.33
2019-01-22T01:14:21.492Z,23.20
2019-01-22T01:16:50.777Z,21.53
2019-01-22T01:19:19.970Z,21.93
2019-01-22T01:21:49.172Z,23.27
2019-01-22T01:24:19.693Z,23.53
2019-01-22T01:26:48.917Z,23.20
2019-01-22T01:29:18.115Z,24.20
2019-01-22T01:31:47.344Z,23.93
2019-01-22T01:34:16.622Z,24.30
2019-01-22T01:36:45.824Z,24.37
2019-01-22T01:39:15.019Z,23.20
2019-01-22T01:41:44.239Z,25.40
2019-01-22T01:44:13.464Z,23.83
2019-01-22T01:46:42.840Z,22.43
2019-01-22T01:49:12.081Z,24.60
2019-01-22T01:51:41.293Z,22.43
2019-01-22T01:54:10.533Z,23.77
2019-01-22T01:56:39.725Z,24.43
2019-01-22T01:59:08.973Z,25.57
2019-01-22T02:01:38.193Z,23.63
2019-01-22T02:04:07.410Z,25.07
2019-01-22T02:06:36.632Z,24.33
2019-01-22T02:09:06.417Z,24.73
2019-01-22T02:11:35.829Z,23.87
2019-01-22T02:14:05.433Z,24.20
2019-01-22T02:16:45.128Z,22.97
2019-01-22T02:19:22.350Z,23.03
2019-01-22T02:21:56.836Z,24.87
2019-01-22T02:24:29.961Z,25.17
2019-01-22T02:27:02.890Z,22.87
2019-01-22T02:29:44.665Z,23.00
2019-01-22T02:32:19.360Z,23.20
2019-01-22T02:34:52.097Z,24.50
2019-01-22T02:37:25.764Z,24.47
2019-01-22T02:39:59.264Z,23.27
2019-01-22T02:42:37.827Z,23.93
2019-01-22T02:45:17.597Z,24.90
2019-01-22T02:47:50.093Z,25.00
2019-01-22T02:50:24.600Z,25.40
2019-01-22T02:52:57.935Z,24.30
2019-01-22T02:55:30.277Z,23.93
2019-01-22T02:58:08.211Z,24.90
2019-01-22T03:00:43.035Z,25.50
2019-01-22T03:03:21.172Z,26.47
2019-01-22T03:05:53.335Z,25.10
2019-01-22T03:08:33.048Z,24.63
2019-01-22T03:11:07.595Z,23.83
2019-01-22T03:13:58.373Z,25.03
2019-01-22T03:16:33.009Z,25.00
2019-01-22T03:19:11.641Z,22.17
2019-01-22T03:21:46.700Z,24.77
2019-01-22T03:25:20.031Z,22.57
2019-01-22T03:27:53.213Z,24.70
2019-01-22T03:30:35.871Z,24.77
2019-01-22T03:33:10.587Z,26.37
2019-01-22T03:35:48.416Z,25.67
2019-01-22T03:38:21.109Z,24.03
2019-01-22T03:40:55.523Z,26.80
2019-01-22T03:43:32.207Z,25.83
2019-01-22T03:46:11.355Z,25.40
2019-01-22T03:48:47.971Z,25.77
2019-01-22T03:51:26.490Z,26.17
2019-01-22T03:54:03.474Z,25.50
2019-01-22T03:56:38.411Z,25.47
2019-01-22T03:59:07.640Z,26.03
2019-01-22T04:01:36.905Z,26.90
2019-01-22T04:04:06.114Z,28.73
2019-01-22T04:07:06.199Z,25.50
2019-01-22T04:09:40.429Z,24.67
2019-01-22T04:12:09.667Z,26.30
2019-01-22T04:14:38.895Z,27.43
2019-01-22T04:17:08.163Z,27.03
2019-01-22T04:19:37.416Z,27.23
2019-01-22T04:22:08.343Z,27.07
2019-01-22T04:24:40.452Z,27.17
2019-01-22T04:27:15.458Z,27.90
2019-01-22T04:29:51.230Z,26.67
2019-01-22T04:32:24.601Z,26.87
2019-01-22T04:35:59.086Z,27.00
2019-01-22T04:38:33.846Z,28.20
2019-01-22T04:41:41.773Z,29.17
2019-01-22T04:44:45.864Z,27.33
2019-01-22T04:47:23.617Z,27.77
2019-01-22T04:50:00.313Z,27.90
2019-01-22T04:52:34.517Z,29.70
2019-01-22T04:55:09.094Z,28.27
2019-01-22T04:57:46.843Z,27.50
2019-01-22T05:00:22.572Z,30.37
2019-01-22T05:02:56.169Z,27.60
2019-01-22T05:05:30.968Z,28.83
2019-01-22T05:08:14.638Z,26.73
2019-01-22T05:10:48.072Z,27.00
2019-01-22T05:14:27.788Z,28.20
2019-01-22T05:17:04.527Z,28.17
2019-01-22T05:19:41.443Z,28.27
2019-01-22T05:22:16.236Z,28.67
2019-01-22T05:24:51.283Z,28.80
2019-01-22T05:27:24.855Z,28.87
2019-01-22T05:29:59.699Z,28.23
2019-01-22T05:32:35.796Z,28.47
2019-01-22T05:37:16.029Z,27.87
2019-01-22T05:39:51.623Z,27.73
2019-01-22T05:42:33.319Z,28.60
2019-01-22T05:45:11.358Z,30.03
2019-01-22T05:47:44.333Z,29.00
2019-01-22T05:51:22.011Z,31.43
2019-01-22T05:53:56.580Z,30.50
2019-01-22T05:56:36.322Z,31.13
2019-01-22T05:59:11.199Z,29.00
2019-01-22T06:01:44.862Z,29.80
2019-01-22T06:04:18.592Z,29.57
2019-01-22T06:06:56.052Z,29.50
2019-01-22T06:10:02.703Z,30.20
2019-01-22T06:12:37.880Z,30.83
2019-01-22T06:15:12.928Z,31.30
2019-01-22T06:17:52.680Z,30.43
2019-01-22T06:20:57.205Z,29.57
2019-01-22T06:23:32.733Z,29.70
2019-01-22T06:26:09.117Z,28.10
2019-01-22T06:28:44.077Z,29.00
2019-01-22T06:31:21.904Z,28.13
2019-01-22T06:33:58.388Z,29.57
2019-01-22T06:36:40.037Z,30.67
2019-01-22T06:39:13.670Z,31.23
2019-01-22T06:41:48.578Z,30.33
2019-01-22T06:44:23.036Z,30.80
2019-01-22T06:46:56.438Z,30.60
2019-01-22T06:49:28.922Z,31.17
2019-01-22T06:52:12.617Z,30.37
2019-01-22T06:54:49.021Z,32.83
2019-01-22T06:57:22.494Z,31.37
2019-01-22T06:59:58.525Z,31.93
2019-01-22T07:02:38.881Z,35.20
2019-01-22T07:05:14.556Z,34.83
2019-01-22T07:07:57.141Z,34.97
2019-01-22T07:10:40.129Z,36.20
2019-01-22T07:13:49.272Z,34.20
2019-01-22T07:16:23.300Z,34.90
2019-01-22T07:21:08.225Z,35.07
2019-01-22T07:23:44.005Z,34.13
2019-01-22T07:26:18.546Z,32.27
2019-01-22T07:29:07.054Z,36.33
2019-01-22T07:31:40.629Z,36.33
2019-01-22T07:34:30.603Z,37.00
2019-01-22T07:37:05.493Z,36.10
2019-01-22T07:39:40.402Z,35.57
2019-01-22T07:43:12.909Z,36.57
2019-01-22T07:45:47.470Z,39.73
2019-01-22T07:48:19.393Z,41.03
2019-01-22T07:51:11.499Z,39.83
2019-01-22T07:53:49.040Z,40.57
2019-01-22T07:56:24.612Z,38.13
2019-01-22T07:58:58.149Z,37.17
2019-01-22T08:01:40.334Z,36.10
2019-01-22T08:04:30.254Z,36.90
2019-01-22T08:07:08.909Z,37.13
2019-01-22T08:09:45.558Z,37.27
2019-01-22T08:12:20.146Z,37.07
2019-01-22T08:15:25.929Z,38.93
2019-01-22T08:17:58.403Z,38.50
2019-01-22T08:20:30.369Z,38.93
2019-01-22T08:23:19.604Z,38.33
2019-01-22T08:25:57.490Z,36.73
2019-01-22T08:28:33.275Z,38.00
2019-01-22T08:31:09.019Z,41.50
2019-01-22T08:33:43.906Z,41.77
2019-01-22T08:36:19.021Z,43.33
2019-01-22T08:39:51.461Z,43.47
2019-01-22T08:44:28.818Z,43.53
2019-01-22T08:47:09.643Z,43.27
2019-01-22T08:51:46.891Z,44.93
2019-01-22T08:54:22.486Z,42.23
2019-01-22T08:57:10.053Z,44.53
2019-01-22T09:00:17.017Z,48.20
2019-01-22T09:02:49.440Z,44.30
2019-01-22T09:05:24.399Z,41.27
2019-01-22T09:08:00.224Z,42.73
2019-01-22T09:11:40.188Z,42.40
2019-01-22T09:14:12.805Z,40.37
2019-01-22T09:16:45.381Z,42.07
2019-01-22T09:19:17.341Z,41.47
2019-01-22T09:21:52.191Z,41.67
2019-01-22T09:24:28.608Z,43.10
2019-01-22T09:27:22.309Z,39.53
2019-01-22T09:30:27.111Z,43.47
2019-01-22T09:33:10.577Z,37.70
2019-01-22T09:35:47.196Z,39.70
2019-01-22T09:38:17.682Z,39.50
2019-01-22T09:40:47.049Z,41.30
2019-01-22T09:43:17.503Z,42.67
2019-01-22T09:45:46.755Z,42.77
2019-01-22T09:48:15.937Z,43.03
2019-01-22T09:50:45.135Z,40.27
2019-01-22T09:53:14.329Z,43.47
2019-01-22T09:55:43.538Z,39.07
2019-01-22T09:58:12.779Z,40.70
2019-01-22T10:00:41.984Z,40.03
2019-01-22T10:03:11.178Z,37.73
2019-01-22T10:05:40.521Z,38.20
2019-01-22T10:08:09.710Z,36.73
2019-01-22T10:10:38.942Z,36.43
2019-01-22T10:13:09.502Z,36.53
2019-01-22T10:15:38.705Z,37.17
2019-01-22T10:18:07.915Z,39.13
2019-01-22T10:20:37.118Z,37.87
2019-01-22T10:23:07.501Z,37.93
2019-01-22T10:25:39.196Z,38.23
2019-01-22T10:28:08.385Z,39.57
2019-01-22T10:30:37.599Z,39.27
2019-01-22T10:33:08.110Z,40.20
2019-01-22T10:35:37.347Z,40.90
2019-01-22T10:38:06.574Z,44.70
2019-01-22T10:40:35.782Z,45.80
2019-01-22T10:43:09.197Z,44.13
2019-01-22T10:45:34.221Z,45.50
2019-01-22T10:48:03.425Z,44.00
2019-01-22T10:50:35.918Z,46.73
2019-01-22T10:53:01.973Z,49.73
2019-01-22T10:55:36.183Z,54.40
2019-01-22T10:58:00.470Z,52.73
2019-01-22T11:00:30.191Z,53.13
2019-01-22T11:02:59.382Z,51.70
2019-01-22T11:05:30.838Z,54.43
2019-01-22T11:08:00.049Z,55.80
2019-01-22T11:10:29.269Z,50.10
2019-01-22T11:12:59.783Z,50.60
2019-01-22T11:15:28.976Z,48.23
2019-01-22T11:17:58.237Z,47.10
2019-01-22T11:20:27.728Z,46.43
2019-01-22T11:22:56.918Z,44.03
2019-01-22T11:25:27.117Z,41.00
2019-01-22T11:27:57.538Z,41.63
2019-01-22T11:30:26.742Z,42.30
2019-01-22T11:32:55.961Z,38.73
2019-01-22T11:35:25.184Z,39.50
2019-01-22T11:37:55.647Z,40.80
2019-01-22T11:40:28.071Z,39.43
2019-01-22T11:42:58.553Z,40.53
2019-01-22T11:45:27.737Z,42.57
2019-01-22T11:47:56.958Z,43.87
2019-01-22T11:50:27.428Z,44.00
2019-01-22T11:52:56.652Z,42.53
2019-01-22T11:55:25.893Z,43.83
2019-01-22T11:57:55.117Z,39.47
2019-01-22T12:00:33.894Z,37.87
2019-01-22T12:03:03.076Z,38.57
2019-01-22T12:05:32.301Z,37.10
2019-01-22T12:08:01.572Z,37.37
2019-01-22T12:10:30.764Z,36.70
2019-01-22T12:12:59.951Z,36.17
2019-01-22T12:15:29.171Z,38.37
2019-01-22T12:17:58.490Z,37.90
2019-01-22T12:20:28.265Z,38.03
2019-01-22T12:22:57.478Z,36.60
2019-01-22T12:25:29.161Z,37.37
2019-01-22T12:27:58.337Z,36.77
2019-01-22T12:30:29.755Z,35.07
2019-01-22T12:32:58.962Z,33.67
2019-01-22T12:35:28.176Z,33.83
2019-01-22T12:37:57.390Z,33.87
2019-01-22T12:40:27.221Z,32.97
2019-01-22T12:42:56.466Z,34.40
2019-01-22T12:45:29.682Z,32.73
2019-01-22T12:47:58.880Z,33.00
2019-01-22T12:50:28.066Z,31.87
2019-01-22T12:52:59.733Z,31.83
2019-01-22T12:55:28.942Z,31.90
2019-01-22T12:57:58.137Z,32.97
2019-01-22T13:00:29.593Z,31.47
2019-01-22T13:02:58.853Z,30.10
2019-01-22T13:05:36.341Z,32.03
2019-01-22T13:08:06.890Z,30.67
2019-01-22T13:10:36.089Z,31.60
2019-01-22T13:13:05.345Z,29.77
2019-01-22T13:15:35.656Z,30.33
2019-01-22T13:18:04.865Z,29.87
2019-01-22T13:20:34.179Z,28.57
2019-01-22T13:23:03.374Z,28.50
2019-01-22T13:25:33.952Z,28.70
2019-01-22T13:28:03.185Z,30.97
2019-01-22T13:30:32.402Z,29.63
2019-01-22T13:33:01.628Z,32.87
2019-01-22T13:35:30.843Z,40.10
2019-01-22T13:38:00.078Z,40.90
2019-01-22T13:40:29.298Z,42.17
2019-01-22T13:43:00.985Z,37.40
2019-01-22T13:45:30.279Z,38.13
2019-01-22T13:47:59.964Z,40.83
2019-01-22T13:50:30.421Z,40.10
2019-01-22T13:52:59.656Z,36.60
2019-01-22T13:55:29.918Z,33.37
2019-01-22T13:57:59.114Z,32.57
2019-01-22T14:00:28.376Z,31.87
2019-01-22T14:02:57.801Z,31.10
2019-01-22T14:05:27.046Z,31.03
2019-01-22T14:07:56.270Z,30.60
2019-01-22T14:10:25.480Z,28.43
2019-01-22T14:12:54.794Z,29.67
2019-01-22T14:15:26.571Z,29.60
2019-01-22T14:17:57.127Z,30.00
2019-01-22T14:20:26.356Z,35.67
2019-01-22T14:22:55.553Z,37.60
2019-01-22T14:25:24.777Z,36.80
2019-01-22T14:27:57.712Z,35.80
2019-01-22T14:30:27.961Z,44.60
2019-01-22T14:32:57.186Z,41.90
2019-01-22T14:35:26.430Z,34.47
2019-01-22T14:37:55.658Z,33.73
2019-01-22T14:40:24.883Z,34.63
2019-01-22T14:42:54.205Z,34.20
2019-01-22T14:45:24.627Z,35.97
2019-01-22T14:47:53.910Z,36.20
2019-01-22T14:50:24.129Z,35.70
2019-01-22T14:52:53.398Z,34.53
2019-01-22T14:55:22.589Z,35.93
2019-01-22T14:57:51.786Z,35.90
2019-01-22T15:00:22.792Z,39.00
2019-01-22T15:02:52.956Z,42.00
2019-01-22T15:05:21.304Z,42.47
2019-01-22T15:07:50.669Z,38.53
2019-01-22T15:10:20.024Z,40.40
2019-01-22T15:12:50.104Z,39.67
2019-01-22T15:15:20.520Z,43.90
2019-01-22T15:17:50.888Z,45.50
2019-01-22T15:20:21.187Z,46.50
2019-01-22T15:22:50.408Z,44.83
2019-01-22T15:25:19.664Z,42.37
2019-01-22T15:27:48.867Z,43.80
2019-01-22T15:30:19.209Z,42.40
2019-01-22T15:32:48.436Z,43.60
2019-01-22T15:35:18.129Z,43.00
2019-01-22T15:37:47.339Z,42.00
2019-01-22T15:40:17.868Z,40.50
2019-01-22T15:42:47.097Z,38.83
2019-01-22T15:45:16.303Z,38.17
2019-01-22T15:47:45.610Z,41.57
2019-01-22T15:50:17.258Z,40.77
2019-01-22T15:52:46.485Z,40.90
2019-01-22T15:55:19.726Z,41.67
2019-01-22T15:57:50.272Z,39.90
2019-01-22T16:00:20.903Z,40.03
2019-01-22T16:02:50.112Z,39.30
2019-01-22T16:05:19.342Z,39.70
2019-01-22T16:07:48.533Z,41.23
2019-01-22T16:10:17.757Z,42.50
2019-01-22T16:12:47.813Z,41.03
2019-01-22T16:15:19.520Z,40.73
2019-01-22T16:17:48.876Z,42.40
2019-01-22T16:20:18.883Z,39.97
2019-01-22T16:22:48.120Z,45.53
2019-01-22T16:25:17.368Z,53.97
2019-01-22T16:27:46.594Z,52.03
2019-01-22T16:30:16.873Z,46.63
2019-01-22T16:32:46.162Z,45.50
2019-01-22T16:35:16.165Z,44.33
2019-01-22T16:37:45.409Z,46.43
2019-01-22T16:40:14.695Z,45.83
2019-01-22T16:42:46.530Z,43.80
2019-01-22T16:45:18.963Z,46.53
2019-01-22T16:47:49.527Z,53.00
2019-01-22T16:50:18.769Z,67.57
2019-01-22T16:52:49.258Z,65.53
2019-01-22T16:55:19.909Z,61.23
2019-01-22T16:57:49.125Z,56.07
2019-01-22T17:00:19.580Z,53.47
2019-01-22T17:02:51.117Z,47.03
2019-01-22T17:05:20.316Z,40.83
2019-01-22T17:07:49.542Z,44.97
2019-01-22T17:10:19.991Z,46.27
2019-01-22T17:12:49.217Z,47.00
2019-01-22T17:15:18.431Z,43.97
2019-01-22T17:17:47.635Z,46.00
2019-01-22T17:20:20.593Z,45.60
2019-01-22T17:22:49.821Z,51.07
2019-01-22T17:25:20.290Z,66.27
2019-01-22T17:27:49.521Z,53.97
2019-01-22T17:30:20.258Z,48.87
2019-01-22T17:32:57.867Z,63.33
2019-01-22T17:35:27.217Z,57.80
2019-01-22T17:37:56.399Z,67.17
2019-01-22T17:40:26.853Z,79.63
2019-01-22T17:42:56.063Z,77.10
2019-01-22T17:45:27.710Z,73.17
2019-01-22T17:47:56.901Z,76.27
2019-01-22T17:50:27.425Z,71.63
2019-01-22T17:52:56.622Z,83.10
2019-01-22T17:55:25.943Z,93.27
2019-01-22T17:57:55.168Z,89.87
2019-01-22T18:00:26.879Z,112.77
2019-01-22T18:02:56.094Z,108.43
2019-01-22T18:05:26.715Z,126.90
2019-01-22T18:07:57.237Z,121.70
2019-01-22T18:10:26.473Z,132.63
2019-01-22T18:12:55.814Z,116.63
2019-01-22T18:15:25.017Z,106.27
2019-01-22T18:17:54.211Z,97.97
2019-01-22T18:20:25.422Z,103.97
2019-01-22T18:22:54.681Z,81.47
2019-01-22T18:25:23.867Z,90.30
2019-01-22T18:27:53.085Z,85.27
2019-01-22T18:30:22.520Z,88.67
2019-01-22T18:32:51.766Z,90.83
2019-01-22T18:35:24.382Z,91.17
2019-01-22T18:37:53.585Z,90.53
2019-01-22T18:40:22.841Z,77.47
2019-01-22T18:42:54.602Z,79.30
2019-01-22T18:45:23.873Z,67.30
2019-01-22T18:47:53.628Z,74.20
2019-01-22T18:50:24.250Z,65.43
2019-01-22T18:52:54.844Z,54.27
2019-01-22T18:55:25.603Z,53.97
2019-01-22T18:57:54.855Z,58.17
2019-01-22T19:00:25.337Z,54.80
2019-01-22T19:02:54.554Z,56.07
2019-01-22T19:05:26.187Z,57.53
2019-01-22T19:07:55.385Z,54.23
2019-01-22T19:10:26.696Z,59.07
2019-01-22T19:12:55.904Z,44.20
2019-01-22T19:15:25.533Z,46.13
2019-01-22T19:17:54.771Z,44.23
2019-01-22T19:20:24.678Z,44.83
2019-01-22T19:22:55.997Z,44.83
2019-01-22T19:25:25.977Z,60.50
2019-01-22T19:27:55.212Z,60.37
2019-01-22T19:30:25.465Z,56.83
2019-01-22T19:32:54.681Z,57.20
2019-01-22T19:35:23.961Z,59.83
2019-01-22T19:37:53.214Z,59.53
2019-01-22T19:40:22.433Z,62.47
2019-01-22T19:42:52.887Z,58.07
2019-01-22T19:45:23.713Z,57.43
2019-01-22T19:47:52.978Z,56.57
2019-01-22T19:50:22.238Z,62.20
2019-01-22T19:52:53.954Z,55.10
2019-01-22T19:55:23.140Z,58.37
2019-01-22T19:57:52.360Z,56.67
2019-01-22T20:00:22.841Z,57.37
2019-01-22T20:02:52.047Z,56.57
2019-01-22T20:05:21.422Z,58.37
2019-01-22T20:07:50.776Z,55.27
2019-01-22T20:10:20.254Z,57.27
2019-01-22T20:12:49.676Z,62.23
2019-01-22T20:15:19.052Z,58.17
2019-01-22T20:17:48.297Z,59.07
2019-01-22T20:20:19.267Z,57.60
2019-01-22T20:22:48.480Z,59.13
2019-01-22T20:25:17.688Z,54.27
2019-01-22T20:27:48.339Z,58.33
2019-01-22T20:30:21.495Z,55.83
2019-01-22T20:32:50.758Z,59.93
2019-01-22T20:35:19.989Z,55.53
2019-01-22T20:37:49.299Z,53.07
2019-01-22T20:40:19.746Z,57.57
2019-01-22T20:42:49.062Z,53.63
2019-01-22T20:45:18.777Z,54.33
2019-01-22T20:47:48.177Z,54.53
2019-01-22T20:50:19.381Z,54.07
2019-01-22T20:52:46.743Z,52.20
2019-01-22T20:55:16.575Z,48.90
2019-01-22T20:57:45.765Z,50.73
2019-01-22T21:00:18.318Z,46.43
2019-01-22T21:02:47.548Z,50.33
2019-01-22T21:05:18.895Z,46.83
2019-01-22T21:07:48.141Z,48.70
2019-01-22T21:10:21.606Z,49.37
2019-01-22T21:12:50.829Z,48.10
2019-01-22T21:15:20.093Z,48.37
2019-01-22T21:17:49.309Z,50.43
2019-01-22T21:20:18.532Z,50.27
2019-01-22T21:22:49.024Z,62.63
2019-01-22T21:25:19.514Z,56.33
2019-01-22T21:27:48.710Z,55.07
2019-01-22T21:30:20.211Z,54.17
2019-01-22T21:32:49.460Z,54.63
2019-01-22T21:35:18.684Z,54.17
2019-01-22T21:37:47.891Z,58.83
2019-01-22T21:40:18.418Z,54.83
2019-01-22T21:42:47.665Z,64.50
2019-01-22T21:45:19.533Z,64.47
2019-01-22T21:47:48.761Z,69.03
2019-01-22T21:50:18.082Z,75.97
2019-01-22T21:52:47.269Z,76.87
2019-01-22T21:55:17.441Z,79.87
2019-01-22T21:57:46.665Z,83.07
2019-01-22T22:00:16.878Z,78.73
2019-01-22T22:02:47.104Z,89.43
2019-01-22T22:05:18.273Z,102.23
2019-01-22T22:07:47.498Z,105.57
2019-01-22T22:10:17.433Z,94.67
2019-01-22T22:12:46.658Z,89.27
2019-01-22T22:15:16.858Z,92.83
2019-01-22T22:17:46.169Z,93.97
2019-01-22T22:20:15.407Z,91.50
2019-01-22T22:22:44.638Z,91.83
2019-01-22T22:25:14.737Z,99.50
2019-01-22T22:27:43.938Z,106.87
2019-01-22T22:30:14.613Z,99.70
2019-01-22T22:32:45.089Z,97.80
2019-01-22T22:35:14.277Z,93.23
2019-01-22T22:37:44.341Z,77.90
2019-01-22T22:40:13.701Z,81.13
2019-01-22T22:42:42.893Z,75.77
2019-01-22T22:45:14.205Z,76.53
2019-01-22T22:47:43.508Z,74.90
2019-01-22T22:50:14.433Z,72.70
2019-01-22T22:52:44.921Z,72.20
2019-01-22T22:55:14.121Z,68.20
2019-01-22T22:57:43.471Z,65.83
2019-01-22T23:00:16.310Z,67.70
2019-01-22T23:02:45.537Z,62.97
2019-01-22T23:05:14.733Z,58.47
2019-01-22T23:07:43.950Z,56.83
2019-01-22T23:10:13.133Z,53.17
2019-01-22T23:12:42.368Z,55.27
2019-01-22T23:15:11.585Z,51.80
2019-01-22T23:17:40.775Z,51.30
2019-01-22T23:20:10.037Z,49.87
2019-01-22T23:22:45.711Z,51.73
2019-01-22T23:25:14.924Z,52.43
2019-01-22T23:27:44.117Z,50.23
2019-01-22T23:30:13.428Z,52.07
2019-01-22T23:32:42.620Z,51.07
2019-01-22T23:35:11.809Z,53.60
2019-01-22T23:37:41.004Z,51.37
2019-01-22T23:40:11.537Z,53.57
2019-01-22T23:42:40.726Z,52.37
2019-01-22T23:45:09.910Z,61.70
2019-01-22T23:47:41.743Z,66.50
2019-01-22T23:50:11.061Z,60.60
2019-01-22T23:52:40.315Z,64.57
2019-01-22T23:55:09.543Z,55.10
2019-01-22T23:57:38.805Z,66.43
